Time;durP1;ratioP1;P1;durP2;ratioP2;P2;SDS_P1;SDS_P2;PMS_P1;PMS_P2;Temp;Humidity;BMP_temperature;BMP_pressure;BME280_temperature;BME280_humidity;BME280_pressure;Samples;Min_cycle;Max_cycle;Signal;HPM_P1;HPM_P2
2024/03/19 00:00:12;;;;;;;10.30;2.70;;;22.60;46.80;;;;;;6177137;28;80702;-58
2024/03/19 00:03:13;;;;;;;3.92;2.67;;;22.60;46.70;;;;;;6177304;28;80362;-58
2024/03/19 00:06:14;;;;;;;3.42;2.78;;;22.60;46.80;;;;;;6177220;28;80857;-58
2024/03/19 00:09:15;;;;;;;4.50;2.67;;;22.60;46.70;;;;;;6177589;28;80800;-57
2024/03/19 00:12:15;;;;;;;4.10;2.80;;;22.60;46.70;;;;;;6178222;28;80396;-56
2024/03/19 00:15:16;;;;;;;4.20;2.53;;;22.60;46.80;;;;;;6176628;28;81303;-58
2024/03/19 00:18:17;;;;;;;5.88;2.97;;;22.60;46.60;;;;;;6178233;28;80844;-55
2024/03/19 00:21:17;;;;;;;4.43;2.70;;;22.60;46.70;;;;;;6189009;28;81150;-57
2024/03/19 00:24:19;;;;;;;4.95;2.90;;;22.60;46.60;;;;;;6178826;28;82544;-56
2024/03/19 00:27:19;;;;;;;5.22;3.13;;;22.60;46.10;;;;;;6176922;28;80749;-57
2024/03/19 00:30:21;;;;;;;5.68;3.00;;;22.60;46.10;;;;;;6175383;28;81952;-52
2024/03/19 00:33:22;;;;;;;4.53;3.17;;;22.60;46.10;;;;;;6177319;28;82524;-59
2024/03/19 00:36:22;;;;;;;3.25;2.15;;;22.60;45.90;;;;;;6177781;28;81479;-59
2024/03/19 00:39:23;;;;;;;4.78;3.30;;;22.60;45.80;;;;;;6177364;28;81029;-60
2024/03/19 00:42:23;;;;;;;5.97;2.83;;;22.60;45.70;;;;;;6177123;28;81246;-59
2024/03/19 00:45:24;;;;;;;3.65;2.75;;;22.60;45.90;;;;;;6176401;28;82354;-58
2024/03/19 00:48:25;;;;;;;4.28;2.90;;;22.60;45.70;;;;;;6176556;28;80996;-59
2024/03/19 00:51:25;;;;;;;4.30;2.90;;;22.60;45.70;;;;;;6176545;28;80473;-59
2024/03/19 00:54:26;;;;;;;4.35;2.85;;;22.60;45.60;;;;;;6178397;28;80576;-59
2024/03/19 00:57:27;;;;;;;4.63;2.33;;;22.60;45.60;;;;;;6176453;28;81919;-60
2024/03/19 01:00:28;;;;;;;3.25;2.40;;;22.60;45.30;;;;;;6188577;28;81091;-60
2024/03/19 01:03:28;;;;;;;5.57;2.50;;;22.60;45.40;;;;;;6179236;28;83878;-60
2024/03/19 01:06:30;;;;;;;4.50;2.75;;;22.60;45.30;;;;;;6188235;28;80561;-60
2024/03/19 01:09:32;;;;;;;5.03;3.20;;;22.60;45.40;;;;;;6176315;28;80362;-54
2024/03/19 01:12:33;;;;;;;4.75;2.88;;;22.60;45.40;;;;;;6176172;28;80469;-54
2024/03/19 01:15:35;;;;;;;5.13;3.17;;;22.60;45.40;;;;;;6175325;28;80631;-58
2024/03/19 01:18:35;;;;;;;4.68;3.03;;;22.60;44.70;;;;;;6175548;28;80372;-55
2024/03/19 01:21:36;;;;;;;4.40;2.63;;;22.60;44.20;;;;;;6176495;28;85011;-57
2024/03/19 01:24:37;;;;;;;4.95;3.17;;;22.60;44.30;;;;;;6176300;28;80813;-57
2024/03/19 01:27:38;;;;;;;5.00;2.72;;;22.60;44.20;;;;;;6175565;28;81613;-59
2024/03/19 01:30:38;;;;;;;5.47;3.33;;;22.60;44.80;;;;;;6175670;28;81670;-60
2024/03/19 01:33:40;;;;;;;4.75;3.03;;;22.60;44.30;;;;;;6176249;28;80813;-58
2024/03/19 01:36:40;;;;;;;5.45;3.33;;;22.60;44.10;;;;;;6176302;28;80972;-59
2024/03/19 01:39:41;;;;;;;3.78;2.58;;;22.60;44.60;;;;;;6176002;28;80472;-59
2024/03/19 01:42:41;;;;;;;5.43;3.03;;;22.60;44.30;;;;;;6175687;28;80619;-59
2024/03/19 01:45:42;;;;;;;4.50;2.85;;;22.60;44.10;;;;;;6176830;28;80252;-59
2024/03/19 01:48:42;;;;;;;4.50;3.00;;;22.70;44.10;;;;;;6170112;28;80556;-60
2024/03/19 01:51:43;;;;;;;4.45;2.90;;;22.70;44.20;;;;;;6175744;28;81489;-59
2024/03/19 01:54:43;;;;;;;5.68;3.17;;;22.70;44.20;;;;;;6175842;28;80531;-59
2024/03/19 01:57:44;;;;;;;4.43;2.67;;;22.60;44.20;;;;;;6176496;28;80157;-60
2024/03/19 02:00:45;;;;;;;4.22;3.35;;;22.60;44.10;;;;;;6174023;28;80790;-59
2024/03/19 02:03:45;;;;;;;4.10;3.00;;;22.60;44.00;;;;;;6178421;28;80569;-59
2024/03/19 02:06:46;;;;;;;4.47;2.80;;;22.60;44.00;;;;;;6174868;28;80845;-59
2024/03/19 02:09:46;;;;;;;5.22;3.55;;;22.60;44.00;;;;;;6189015;28;80423;-59
2024/03/19 02:12:47;;;;;;;4.00;2.67;;;22.60;44.10;;;;;;6173526;28;80446;-59
2024/03/19 02:15:50;;;;;;;5.22;3.00;;;22.70;44.20;;;;;;6162933;28;83512;-58
2024/03/19 02:18:51;;;;;;;4.93;3.30;;;22.70;44.00;;;;;;6177024;28;81193;-58
2024/03/19 02:21:51;;;;;;;7.40;3.60;;;22.70;43.80;;;;;;6179501;28;84803;-58
2024/03/19 02:24:52;;;;;;;4.75;2.95;;;22.70;43.70;;;;;;6179230;28;82696;-59
2024/03/19 02:27:52;;;;;;;5.68;2.97;;;22.70;43.90;;;;;;6179864;28;81782;-57
2024/03/19 02:30:53;;;;;;;4.07;2.75;;;22.60;43.50;;;;;;6189713;28;81540;-58
2024/03/19 02:33:55;;;;;;;5.75;3.40;;;22.70;43.60;;;;;;6180171;28;80970;-58
2024/03/19 02:36:58;;;;;;;4.07;2.85;;;22.60;43.50;;;;;;6177499;28;80330;-58
2024/03/19 02:40:00;;;;;;;3.83;2.97;;;22.60;43.50;;;;;;6179089;28;80500;-58
2024/03/19 02:43:00;;;;;;;5.00;3.05;;;22.60;43.40;;;;;;6179098;28;80026;-58
2024/03/19 02:46:01;;;;;;;5.10;2.97;;;22.60;43.40;;;;;;6178961;28;80624;-58
2024/03/19 02:49:02;;;;;;;6.97;3.45;;;22.60;43.40;;;;;;6179215;28;81271;-58
2024/03/19 02:52:02;;;;;;;4.38;2.80;;;22.60;43.20;;;;;;6179347;28;80481;-58
2024/03/19 02:55:03;;;;;;;5.13;2.92;;;22.60;43.30;;;;;;6178345;28;82145;-57
2024/03/19 02:58:03;;;;;;;5.88;3.55;;;22.60;43.20;;;;;;6178816;28;80821;-60
2024/03/19 03:01:04;;;;;;;3.78;3.03;;;22.60;43.20;;;;;;6179738;28;80842;-56
2024/03/19 03:04:04;;;;;;;5.88;2.85;;;22.60;43.20;;;;;;6163371;28;80310;-58
2024/03/19 03:07:05;;;;;;;4.45;3.22;;;22.60;43.00;;;;;;6178115;28;82012;-56
2024/03/19 03:10:05;;;;;;;3.80;2.72;;;22.60;42.80;;;;;;6180306;28;86815;-57
2024/03/19 03:13:06;;;;;;;6.53;3.63;;;22.60;42.90;;;;;;6177696;28;81429;-57
2024/03/19 03:16:07;;;;;;;4.63;3.28;;;22.60;42.90;;;;;;6178176;28;80724;-58
2024/03/19 03:19:07;;;;;;;5.00;3.13;;;22.60;42.80;;;;;;6179153;28;80489;-53
2024/03/19 03:22:08;;;;;;;6.82;3.72;;;22.60;42.70;;;;;;6177096;28;80758;-57
2024/03/19 03:25:11;;;;;;;7.85;3.67;;;22.60;42.80;;;;;;6178813;28;80415;-54
2024/03/19 03:28:11;;;;;;;5.07;3.53;;;22.60;42.80;;;;;;6178098;28;81041;-53
2024/03/19 03:31:12;;;;;;;4.93;3.47;;;22.60;42.80;;;;;;6176912;28;80426;-51
2024/03/19 03:34:13;;;;;;;4.65;3.28;;;22.60;42.80;;;;;;6178166;28;81442;-52
2024/03/19 03:37:14;;;;;;;5.70;3.63;;;22.60;42.70;;;;;;6178264;28;80418;-56
2024/03/19 03:40:18;;;;;;;4.22;2.97;;;22.60;42.70;;;;;;6178463;28;80480;-57
2024/03/19 03:43:18;;;;;;;5.95;3.33;;;22.60;42.90;;;;;;6178212;28;80750;-57
2024/03/19 03:46:19;;;;;;;5.00;3.45;;;22.60;42.90;;;;;;6178221;28;80338;-59
2024/03/19 03:49:19;;;;;;;5.30;3.85;;;22.60;43.10;;;;;;6178474;28;80349;-58
2024/03/19 03:52:20;;;;;;;5.07;3.35;;;22.60;42.90;;;;;;6177613;28;80333;-58
2024/03/19 03:55:20;;;;;;;4.75;3.50;;;22.60;43.10;;;;;;6177189;28;80590;-59
2024/03/19 03:58:21;;;;;;;4.88;3.47;;;22.60;43.10;;;;;;6178432;28;80432;-55
2024/03/19 04:01:22;;;;;;;4.60;3.58;;;22.60;43.20;;;;;;6176726;28;80890;-57
2024/03/19 04:04:22;;;;;;;5.32;3.30;;;22.60;43.30;;;;;;6172980;28;83393;-57
2024/03/19 04:07:23;;;;;;;5.60;3.83;;;22.60;43.10;;;;;;6178305;28;81493;-55
2024/03/19 04:10:23;;;;;;;4.28;3.25;;;22.60;43.40;;;;;;6175748;28;80755;-54
2024/03/19 04:13:24;;;;;;;5.13;3.42;;;22.60;42.90;;;;;;6177703;28;80602;-62
2024/03/19 04:16:24;;;;;;;5.53;3.78;;;22.70;43.10;;;;;;6180890;28;80514;-59
2024/03/19 04:19:25;;;;;;;4.22;3.65;;;22.70;42.70;;;;;;6177561;28;81400;-60
2024/03/19 04:22:26;;;;;;;6.18;4.00;;;22.70;42.00;;;;;;6177615;28;80847;-58
2024/03/19 04:25:27;;;;;;;5.80;4.03;;;22.80;41.70;;;;;;6177703;28;80510;-59
2024/03/19 04:28:27;;;;;;;4.93;3.65;;;22.80;41.60;;;;;;6178895;28;81649;-59
2024/03/19 04:31:28;;;;;;;5.70;4.18;;;22.90;41.50;;;;;;6187167;28;80949;-61
2024/03/19 04:34:29;;;;;;;4.22;3.17;;;22.90;42.10;;;;;;6177429;28;80367;-60
2024/03/19 04:37:29;;;;;;;5.50;3.72;;;22.90;41.20;;;;;;6187564;28;80220;-59
2024/03/19 04:40:30;;;;;;;5.57;3.90;;;23.00;41.10;;;;;;6176846;28;80788;-60
2024/03/19 04:43:32;;;;;;;5.60;3.90;;;23.00;41.00;;;;;;6177013;28;80327;-60
2024/03/19 04:46:33;;;;;;;8.35;4.10;;;23.10;41.10;;;;;;6176537;28;81057;-59
2024/03/19 04:49:34;;;;;;;5.30;3.78;;;23.10;41.10;;;;;;6176175;28;80892;-59
2024/03/19 04:52:34;;;;;;;6.07;3.67;;;23.10;41.10;;;;;;6175080;28;82941;-58
2024/03/19 04:55:35;;;;;;;5.13;3.40;;;23.20;41.30;;;;;;6187087;28;80633;-51
2024/03/19 04:58:35;;;;;;;5.63;3.65;;;23.20;41.30;;;;;;6176964;28;80208;-53
2024/03/19 05:01:36;;;;;;;5.03;3.60;;;23.20;41.00;;;;;;6178273;28;80699;-53
2024/03/19 05:04:36;;;;;;;6.50;4.43;;;23.20;40.80;;;;;;6171549;28;80697;-53
2024/03/19 05:07:37;;;;;;;4.97;3.55;;;23.30;41.10;;;;;;6167738;28;80265;-50
2024/03/19 05:10:37;;;;;;;6.72;4.10;;;23.30;42.00;;;;;;6176387;28;81014;-51
2024/03/19 05:13:38;;;;;;;4.78;3.78;;;23.30;42.30;;;;;;6175604;28;83862;-52
2024/03/19 05:16:38;;;;;;;6.82;4.07;;;23.40;42.30;;;;;;6174273;28;80271;-50
2024/03/19 05:19:39;;;;;;;7.60;4.40;;;23.40;42.30;;;;;;6175431;28;80777;-46
2024/03/19 05:22:40;;;;;;;6.00;4.13;;;23.40;42.50;;;;;;6176954;28;80591;-48
2024/03/19 05:25:40;;;;;;;4.80;3.40;;;23.40;42.60;;;;;;6176745;28;80275;-48
2024/03/19 05:28:40;;;;;;;12.30;4.57;;;23.40;42.80;;;;;;6175748;28;82774;-49
2024/03/19 05:31:41;;;;;;;6.13;4.00;;;23.50;42.60;;;;;;6173511;28;80477;-49
2024/03/19 05:34:42;;;;;;;6.07;3.95;;;23.40;42.60;;;;;;6176216;28;80816;-53
2024/03/19 05:37:43;;;;;;;9.80;4.38;;;23.50;42.40;;;;;;6173081;28;80616;-50
2024/03/19 05:40:43;;;;;;;8.00;4.35;;;23.40;42.30;;;;;;6173810;28;80454;-46
2024/03/19 05:43:44;;;;;;;9.50;3.40;;;23.50;42.70;;;;;;6151367;28;80878;-57
2024/03/19 05:46:44;;;;;;;10.90;4.20;;;23.50;42.80;;;;;;6154848;28;81369;-52
2024/03/19 05:49:45;;;;;;;8.93;3.85;;;23.50;42.70;;;;;;6167634;28;81957;-55
2024/03/19 05:52:45;;;;;;;10.73;3.83;;;23.50;42.80;;;;;;6175855;28;81419;-57
2024/03/19 05:55:46;;;;;;;8.70;4.07;;;23.50;42.50;;;;;;6165165;28;80462;-55
2024/03/19 05:58:46;;;;;;;10.27;4.03;;;23.50;42.50;;;;;;6177639;28;81636;-56
2024/03/19 06:01:47;;;;;;;6.60;3.90;;;23.50;42.50;;;;;;6168346;28;80564;-57
2024/03/19 06:04:48;;;;;;;7.65;4.28;;;23.40;42.40;;;;;;6179036;28;81590;-55
2024/03/19 06:07:48;;;;;;;7.05;4.18;;;23.50;42.50;;;;;;6177324;28;80564;-53
2024/03/19 06:10:49;;;;;;;6.55;3.80;;;23.40;42.50;;;;;;6179467;28;80918;-52
2024/03/19 06:13:49;;;;;;;4.68;3.42;;;23.40;42.30;;;;;;6178940;28;80375;-55
2024/03/19 06:16:50;;;;;;;7.93;3.80;;;23.40;42.20;;;;;;6178988;28;80411;-55
2024/03/19 06:19:51;;;;;;;8.52;3.65;;;23.40;42.40;;;;;;6180168;28;87317;-55
2024/03/19 06:22:53;;;;;;;7.40;3.75;;;23.40;42.50;;;;;;6179527;28;80174;-52
2024/03/19 06:25:54;;;;;;;9.20;4.82;;;23.30;42.30;;;;;;6179427;28;80707;-54
2024/03/19 06:28:54;;;;;;;5.25;3.83;;;23.30;42.20;;;;;;6185979;28;81825;-54
2024/03/19 06:31:55;;;;;;;6.50;4.15;;;23.30;42.40;;;;;;6184480;28;80756;-54
2024/03/19 06:34:56;;;;;;;6.68;4.13;;;23.30;42.60;;;;;;6191778;28;81171;-55
2024/03/19 06:37:56;;;;;;;6.05;3.95;;;23.20;42.40;;;;;;6179209;28;80303;-55
2024/03/19 06:40:57;;;;;;;5.18;3.72;;;23.20;42.20;;;;;;6179205;28;82863;-51
2024/03/19 06:43:57;;;;;;;8.05;4.00;;;23.20;42.20;;;;;;6179659;28;81871;-56
2024/03/19 06:46:58;;;;;;;8.68;4.05;;;23.20;42.20;;;;;;6178887;28;81886;-55
2024/03/19 06:49:59;;;;;;;6.25;3.80;;;23.20;42.00;;;;;;6178489;28;80436;-54
2024/03/19 06:52:59;;;;;;;6.03;3.83;;;23.20;41.90;;;;;;6178036;28;80940;-55
2024/03/19 06:56:00;;;;;;;7.55;4.30;;;23.10;41.70;;;;;;6177939;28;80634;-55
2024/03/19 06:59:00;;;;;;;6.18;4.03;;;23.10;41.80;;;;;;6177601;28;82485;-56
2024/03/19 07:02:04;;;;;;;8.23;3.72;;;23.20;41.70;;;;;;6178683;28;82452;-57
2024/03/19 07:05:07;;;;;;;5.35;3.33;;;23.10;41.50;;;;;;6174209;28;81195;-57
2024/03/19 07:08:08;;;;;;;5.78;3.63;;;23.10;41.50;;;;;;6177024;28;81473;-57
2024/03/19 07:11:09;;;;;;;4.35;3.13;;;23.10;41.30;;;;;;6178310;28;80591;-57
2024/03/19 07:14:10;;;;;;;5.30;3.72;;;23.10;41.50;;;;;;6178412;28;80368;-55
2024/03/19 07:17:10;;;;;;;7.90;3.72;;;23.10;41.30;;;;;;6178162;28;80472;-58
2024/03/19 07:20:12;;;;;;;5.15;3.75;;;23.10;41.30;;;;;;6179226;28;80458;-56
2024/03/19 07:23:12;;;;;;;4.10;3.25;;;23.10;41.00;;;;;;6178221;28;80659;-58
2024/03/19 07:26:13;;;;;;;7.60;4.22;;;23.10;41.00;;;;;;6179195;28;81469;-56
2024/03/19 07:29:13;;;;;;;8.18;3.80;;;23.10;40.90;;;;;;6178228;28;82216;-56
2024/03/19 07:32:14;;;;;;;4.57;3.20;;;23.10;41.00;;;;;;6177680;28;80491;-57
2024/03/19 07:35:14;;;;;;;5.53;3.58;;;23.00;40.60;;;;;;6177489;28;80624;-57
2024/03/19 07:38:15;;;;;;;5.00;3.63;;;23.10;40.70;;;;;;6182127;28;80594;-54
2024/03/19 07:41:16;;;;;;;4.70;3.33;;;23.10;40.30;;;;;;6184583;28;81998;-56
2024/03/19 07:44:16;;;;;;;4.50;3.42;;;23.10;40.60;;;;;;6178107;28;81170;-54
2024/03/19 07:47:18;;;;;;;4.85;3.35;;;23.10;40.60;;;;;;6178504;28;80699;-53
2024/03/19 07:50:22;;;;;;;6.85;3.65;;;23.10;40.40;;;;;;6177147;28;81835;-55
2024/03/19 07:53:22;;;;;;;4.75;3.65;;;23.10;40.60;;;;;;6177043;28;80795;-54
2024/03/19 07:56:23;;;;;;;5.50;3.33;;;23.10;40.40;;;;;;6177438;28;82683;-54
2024/03/19 07:59:23;;;;;;;4.25;3.40;;;23.10;40.60;;;;;;6177709;28;80550;-53
2024/03/19 08:02:24;;;;;;;5.80;3.25;;;23.10;40.50;;;;;;6176338;28;80487;-54
2024/03/19 08:05:24;;;;;;;4.65;3.30;;;23.10;40.50;;;;;;6175941;28;80749;-57
2024/03/19 08:08:25;;;;;;;4.50;3.50;;;23.20;40.50;;;;;;6189255;28;80624;-55
2024/03/19 08:11:26;;;;;;;4.00;3.10;;;23.20;40.50;;;;;;6178343;28;80269;-55
2024/03/19 08:14:26;;;;;;;4.35;3.25;;;23.20;40.70;;;;;;6176049;28;82577;-52
2024/03/19 08:17:27;;;;;;;5.68;3.38;;;23.20;40.70;;;;;;6176964;28;81791;-55
2024/03/19 08:20:29;;;;;;;4.00;3.25;;;23.20;40.60;;;;;;6177070;28;80315;-54
2024/03/19 08:23:30;;;;;;;4.57;3.22;;;23.20;40.60;;;;;;6177477;28;80473;-56
2024/03/19 08:26:33;;;;;;;5.38;3.65;;;23.20;40.70;;;;;;6177042;28;81339;-52
2024/03/19 08:29:34;;;;;;;3.83;3.00;;;23.20;40.70;;;;;;6177327;28;79975;-55
2024/03/19 08:32:34;;;;;;;5.05;3.40;;;23.20;40.60;;;;;;6176811;28;81745;-56
2024/03/19 08:35:35;;;;;;;7.07;3.67;;;23.20;40.50;;;;;;6176894;28;81154;-53
2024/03/19 08:38:35;;;;;;;3.80;2.95;;;23.20;40.50;;;;;;6176400;28;80308;-56
2024/03/19 08:41:36;;;;;;;4.75;3.25;;;23.20;40.30;;;;;;6176980;28;80192;-56
2024/03/19 08:44:36;;;;;;;4.25;3.28;;;23.20;40.60;;;;;;6176931;28;81239;-53
2024/03/19 08:47:38;;;;;;;5.47;3.33;;;23.20;40.40;;;;;;6177198;28;81399;-55
2024/03/19 08:50:39;;;;;;;5.00;3.28;;;23.20;40.20;;;;;;6177072;28;81933;-55
2024/03/19 08:53:39;;;;;;;3.65;3.28;;;23.20;40.20;;;;;;6176829;28;80485;-57
2024/03/19 08:56:40;;;;;;;4.38;3.33;;;23.30;40.00;;;;;;6176864;28;80547;-56
2024/03/19 08:59:40;;;;;;;6.13;2.85;;;23.30;40.00;;;;;;6174731;28;80465;-56
2024/03/19 09:02:41;;;;;;;7.10;3.03;;;23.30;40.10;;;;;;6176701;28;80914;-54
2024/03/19 09:05:41;;;;;;;4.00;3.03;;;23.40;40.30;;;;;;6175544;28;82495;-61
2024/03/19 09:08:42;;;;;;;4.70;3.00;;;23.50;40.30;;;;;;6175702;28;82914;-62
2024/03/19 09:11:43;;;;;;;3.30;2.80;;;23.50;40.10;;;;;;6164934;28;80596;-62
2024/03/19 09:14:43;;;;;;;3.42;2.92;;;23.50;39.70;;;;;;6175785;28;81410;-61
2024/03/19 09:17:44;;;;;;;4.82;3.05;;;23.60;39.90;;;;;;6175632;28;80768;-61
2024/03/19 09:20:47;;;;;;;3.35;2.70;;;23.60;39.40;;;;;;6175819;28;80405;-62
2024/03/19 09:23:47;;;;;;;5.10;3.22;;;23.70;39.40;;;;;;6175457;28;80460;-61
2024/03/19 09:26:48;;;;;;;3.50;2.70;;;23.70;39.30;;;;;;6175908;28;80715;-51
2024/03/19 09:29:48;;;;;;;4.40;2.97;;;23.80;39.40;;;;;;6175555;28;80280;-55
2024/03/19 09:32:49;;;;;;;5.03;2.97;;;23.80;39.20;;;;;;6176707;28;81320;-53
2024/03/19 09:35:50;;;;;;;3.00;2.40;;;23.90;39.40;;;;;;6174827;28;80852;-55
2024/03/19 09:38:50;;;;;;;3.63;2.25;;;23.90;39.20;;;;;;6175422;28;81061;-52
2024/03/19 09:41:51;;;;;;;3.63;2.60;;;24.00;39.30;;;;;;6175114;28;80354;-55
2024/03/19 09:44:51;;;;;;;2.97;2.42;;;24.00;39.20;;;;;;6176193;28;81000;-61
2024/03/19 09:47:52;;;;;;;3.33;2.65;;;24.00;39.20;;;;;;6176066;28;80326;-61
2024/03/19 09:50:52;;;;;;;3.42;1.95;;;24.00;39.70;;;;;;6176570;28;81764;-61
2024/03/19 09:53:53;;;;;;;3.75;2.08;;;24.10;39.20;;;;;;6177495;28;81687;-61
2024/03/19 09:56:53;;;;;;;3.42;2.20;;;24.10;39.20;;;;;;6175990;28;80848;-61
2024/03/19 09:59:57;;;;;;;2.30;1.98;;;24.10;39.10;;;;;;6187093;28;80424;-61
2024/03/19 10:02:58;;;;;;;2.22;1.90;;;24.10;39.00;;;;;;6176650;28;80227;-53
2024/03/19 10:05:58;;;;;;;2.70;2.08;;;24.20;39.00;;;;;;6175185;28;80485;-54
2024/03/19 10:08:59;;;;;;;4.70;2.20;;;24.20;39.00;;;;;;6175886;28;80294;-56
2024/03/19 10:11:59;;;;;;;2.17;1.90;;;24.20;39.00;;;;;;6176228;28;81547;-54
2024/03/19 10:15:00;;;;;;;2.75;2.20;;;24.20;39.10;;;;;;6175901;28;81121;-52
2024/03/19 10:18:00;;;;;;;4.03;2.22;;;24.20;39.00;;;;;;6176041;28;80997;-49
2024/03/19 10:21:01;;;;;;;3.15;2.47;;;24.20;39.00;;;;;;6175708;28;80655;-58
2024/03/19 10:24:01;;;;;;;2.20;1.95;;;24.20;39.20;;;;;;6175877;28;80618;-58
2024/03/19 10:27:02;;;;;;;3.13;2.03;;;24.20;39.10;;;;;;6175619;28;80527;-58
2024/03/19 10:30:02;;;;;;;2.80;2.20;;;24.10;39.20;;;;;;6175229;28;80510;-58
2024/03/19 10:33:03;;;;;;;2.53;2.00;;;24.20;39.20;;;;;;6175450;28;80737;-58
2024/03/19 10:36:03;;;;;;;2.53;2.00;;;24.20;39.10;;;;;;6176022;28;83024;-58
2024/03/19 10:39:06;;;;;;;3.65;2.10;;;24.10;39.20;;;;;;6177943;28;80736;-57
2024/03/19 10:42:07;;;;;;;3.05;2.47;;;24.20;39.40;;;;;;6180664;28;81389;-58
2024/03/19 10:45:07;;;;;;;2.67;2.10;;;24.30;39.40;;;;;;6179113;28;80193;-58
2024/03/19 10:48:08;;;;;;;2.33;2.13;;;24.30;39.40;;;;;;6178843;28;80333;-58
2024/03/19 10:51:09;;;;;;;2.47;2.25;;;24.30;39.50;;;;;;6177402;28;80816;-57
2024/03/19 10:54:10;;;;;;;3.33;2.00;;;24.30;39.50;;;;;;6179223;28;80991;-58
2024/03/19 10:57:10;;;;;;;2.33;2.00;;;24.30;39.60;;;;;;6176495;28;80897;-61
2024/03/19 11:00:12;;;;;;;2.13;1.80;;;24.30;39.40;;;;;;6168380;28;80615;-62
2024/03/19 11:03:13;;;;;;;3.42;2.10;;;24.30;39.60;;;;;;6179773;28;80384;-62
2024/03/19 11:06:13;;;;;;;2.63;1.70;;;24.40;39.50;;;;;;6192270;28;80528;-62
2024/03/19 11:09:14;;;;;;;2.22;1.92;;;24.40;39.60;;;;;;6177911;28;80627;-63
2024/03/19 11:12:14;;;;;;;3.33;2.00;;;24.30;39.30;;;;;;6178921;28;80365;-62
2024/03/19 11:15:15;;;;;;;3.03;1.90;;;24.30;39.20;;;;;;6179365;28;81033;-60
2024/03/19 11:18:15;;;;;;;1.98;1.70;;;24.30;39.10;;;;;;6179639;28;81272;-63
2024/03/19 11:21:18;;;;;;;2.88;2.00;;;24.30;39.30;;;;;;6179679;28;80499;-63
2024/03/19 11:24:18;;;;;;;4.38;1.65;;;24.30;39.60;;;;;;6178489;28;80346;-63
2024/03/19 11:27:19;;;;;;;2.25;1.63;;;24.30;39.70;;;;;;6185043;28;81267;-62
2024/03/19 11:30:20;;;;;;;2.65;1.70;;;24.40;39.60;;;;;;6184243;28;80895;-62
2024/03/19 11:33:20;;;;;;;2.42;1.92;;;24.40;39.60;;;;;;6165632;28;81371;-63
2024/03/19 11:36:21;;;;;;;2.53;1.77;;;24.40;39.40;;;;;;6178771;28;80799;-63
2024/03/19 11:39:21;;;;;;;2.05;1.83;;;24.40;39.50;;;;;;6178921;28;80647;-62
2024/03/19 11:42:22;;;;;;;3.50;1.85;;;24.40;39.50;;;;;;6178744;28;80783;-62
2024/03/19 11:45:22;;;;;;;2.92;1.90;;;24.40;39.60;;;;;;6178097;28;80357;-62
2024/03/19 11:48:24;;;;;;;3.88;2.10;;;24.40;39.60;;;;;;6177603;28;82910;-62
2024/03/19 11:51:25;;;;;;;2.47;1.80;;;24.40;39.40;;;;;;6176857;28;81117;-62
2024/03/19 11:54:25;;;;;;;3.55;1.98;;;24.50;39.50;;;;;;6176074;28;80829;-63
2024/03/19 11:57:26;;;;;;;2.22;1.67;;;24.50;39.40;;;;;;6178111;28;81251;-62
2024/03/19 12:00:27;;;;;;;5.53;1.80;;;24.60;39.40;;;;;;6177668;28;80736;-61
2024/03/19 12:03:28;;;;;;;2.95;2.03;;;24.60;39.20;;;;;;6178558;28;81487;-62
2024/03/19 12:06:28;;;;;;;2.45;1.63;;;24.60;39.30;;;;;;6178275;28;80321;-61
2024/03/19 12:09:29;;;;;;;4.03;2.28;;;24.60;39.20;;;;;;6177782;28;80477;-58
2024/03/19 12:12:29;;;;;;;2.38;1.60;;;24.60;39.10;;;;;;6176634;28;81040;-58
2024/03/19 12:15:30;;;;;;;2.22;1.70;;;24.60;39.90;;;;;;6176817;28;80903;-58
2024/03/19 12:18:30;;;;;;;1.90;1.60;;;24.70;39.20;;;;;;6177072;28;81301;-58
2024/03/19 12:21:31;;;;;;;2.92;1.48;;;24.70;39.20;;;;;;6178363;28;80402;-58
2024/03/19 12:24:32;;;;;;;1.65;1.45;;;24.70;39.20;;;;;;6177478;28;80274;-58
2024/03/19 12:27:32;;;;;;;1.85;1.38;;;24.70;39.10;;;;;;6178197;28;82068;-61
2024/03/19 12:30:33;;;;;;;3.00;1.50;;;24.70;39.20;;;;;;6177201;28;80605;-53
2024/03/19 12:33:50;;;;;;;1.38;1.27;;;24.70;39.10;;;;;;6177044;28;82428;-56
2024/03/19 12:36:51;;;;;;;2.67;1.73;;;24.70;39.00;;;;;;6177272;28;80545;-55
2024/03/19 12:39:51;;;;;;;2.05;1.52;;;24.80;38.80;;;;;;6175326;28;85027;-58
2024/03/19 12:42:52;;;;;;;2.85;1.88;;;24.80;38.90;;;;;;6177720;28;80896;-55
2024/03/19 12:45:53;;;;;;;2.85;1.45;;;24.80;38.90;;;;;;6176714;28;80855;-55
2024/03/19 12:48:53;;;;;;;1.95;1.70;;;24.70;38.70;;;;;;6178090;28;81005;-55
2024/03/19 12:51:54;;;;;;;1.67;1.50;;;24.80;38.90;;;;;;6177350;28;80520;-55
2024/03/19 12:54:54;;;;;;;3.25;1.77;;;24.80;38.90;;;;;;6177229;28;80443;-53
2024/03/19 12:57:55;;;;;;;2.10;1.88;;;24.70;38.80;;;;;;6176758;28;80636;-54
2024/03/19 13:00:55;;;;;;;2.15;1.58;;;24.80;39.00;;;;;;6176572;28;81301;-54
2024/03/19 13:03:56;;;;;;;2.60;1.60;;;24.70;38.90;;;;;;6176475;28;81412;-55
2024/03/19 13:06:56;;;;;;;2.75;1.60;;;24.70;38.70;;;;;;6177608;28;80458;-53
2024/03/19 13:09:57;;;;;;;2.38;2.13;;;24.80;38.90;;;;;;6185114;28;80757;-56
2024/03/19 13:12:57;;;;;;;1.55;1.40;;;24.80;38.80;;;;;;6176817;28;80551;-51
2024/03/19 13:15:58;;;;;;;1.88;1.70;;;24.80;38.80;;;;;;6177099;28;80745;-50
2024/03/19 13:18:59;;;;;;;2.78;1.58;;;24.80;38.90;;;;;;6175665;28;80602;-53
2024/03/19 13:21:59;;;;;;;2.80;1.58;;;24.80;38.90;;;;;;6177316;28;80522;-54
2024/03/19 13:25:00;;;;;;;1.73;1.30;;;24.70;38.90;;;;;;6175907;28;80824;-54
2024/03/19 13:28:00;;;;;;;2.20;1.50;;;24.80;38.90;;;;;;6177485;28;80415;-54
2024/03/19 13:31:01;;;;;;;2.58;1.70;;;24.70;38.90;;;;;;6175906;28;80625;-55
2024/03/19 13:34:02;;;;;;;1.73;1.27;;;24.70;38.90;;;;;;6189035;28;80853;-53
2024/03/19 13:37:02;;;;;;;1.70;1.55;;;24.70;39.60;;;;;;6176413;28;80312;-53
2024/03/19 13:40:03;;;;;;;2.05;1.38;;;24.70;39.00;;;;;;6175875;28;80758;-53
2024/03/19 13:43:04;;;;;;;2.17;1.30;;;24.70;39.00;;;;;;6175459;28;80433;-54
2024/03/19 13:46:04;;;;;;;1.98;1.40;;;24.70;38.90;;;;;;6176919;28;80736;-54
2024/03/19 13:49:05;;;;;;;2.20;1.55;;;24.70;39.00;;;;;;6176681;28;80859;-55
2024/03/19 13:52:06;;;;;;;1.25;1.15;;;24.70;39.00;;;;;;6173328;28;81262;-54
2024/03/19 13:55:06;;;;;;;4.13;1.55;;;24.70;39.10;;;;;;6186502;28;80933;-60
2024/03/19 13:58:08;;;;;;;2.80;1.58;;;24.70;39.00;;;;;;6173396;28;83231;-54
2024/03/19 14:01:09;;;;;;;9.88;1.50;;;24.70;39.00;;;;;;6166350;28;85414;-58
2024/03/19 14:04:09;;;;;;;5.53;1.92;;;24.70;39.50;;;;;;6176820;28;80586;-57
2024/03/19 14:07:10;;;;;;;5.82;1.70;;;24.70;39.70;;;;;;6175453;28;80613;-57
2024/03/19 14:10:11;;;;;;;2.50;1.40;;;24.70;39.80;;;;;;6176487;28;80262;-58
2024/03/19 14:13:11;;;;;;;7.15;2.00;;;24.70;39.50;;;;;;6177566;28;80368;-57
2024/03/19 14:16:12;;;;;;;3.42;1.75;;;24.70;39.50;;;;;;6178856;28;83332;-52
2024/03/19 14:19:14;;;;;;;3.58;1.52;;;24.70;39.60;;;;;;6179756;28;80499;-58
2024/03/19 14:22:15;;;;;;;6.18;2.28;;;24.70;39.60;;;;;;6172716;28;80823;-51
2024/03/19 14:25:15;;;;;;;5.22;2.15;;;24.70;39.60;;;;;;6179600;28;80605;-51
2024/03/19 14:28:16;;;;;;;6.07;2.40;;;24.70;40.00;;;;;;6175841;28;82282;-56
2024/03/19 14:31:17;;;;;;;8.18;2.50;;;24.60;40.00;;;;;;6173599;28;83607;-56
2024/03/19 14:34:18;;;;;;;7.07;2.13;;;24.70;40.00;;;;;;6173168;28;80722;-54
2024/03/19 14:37:18;;;;;;;14.73;3.33;;;24.70;40.40;;;;;;6168717;28;82732;-60
2024/03/19 14:40:19;;;;;;;12.63;3.58;;;24.70;41.30;;;;;;6177965;28;80575;-59
2024/03/19 14:43:19;;;;;;;19.58;4.13;;;24.60;41.50;;;;;;6172867;28;80990;-59
2024/03/19 14:46:20;;;;;;;12.95;3.95;;;24.60;41.60;;;;;;6175968;28;80752;-57
2024/03/19 14:49:20;;;;;;;20.20;5.20;;;24.70;41.60;;;;;;6174586;28;80787;-57
2024/03/19 14:52:24;;;;;;;22.33;6.05;;;24.70;41.50;;;;;;6174093;28;81000;-60
2024/03/19 14:55:24;;;;;;;13.55;3.88;;;24.70;41.50;;;;;;6178332;28;82132;-58
2024/03/19 14:58:26;;;;;;;11.90;4.40;;;24.70;41.30;;;;;;6169454;28;81326;-58
2024/03/19 15:01:26;;;;;;;15.07;4.20;;;24.70;41.20;;;;;;6172315;28;81250;-58
2024/03/19 15:04:27;;;;;;;11.95;4.45;;;24.70;41.20;;;;;;6174539;28;81792;-59
2024/03/19 15:07:27;;;;;;;13.45;4.45;;;24.70;40.90;;;;;;6171510;28;80566;-58
2024/03/19 15:10:32;;;;;;;10.95;3.70;;;24.70;40.80;;;;;;6186443;28;83412;-58
2024/03/19 15:13:33;;;;;;;15.57;4.10;;;24.70;40.70;;;;;;6177767;28;81436;-57
2024/03/19 15:16:34;;;;;;;10.48;3.45;;;24.60;40.60;;;;;;6173447;28;81467;-56
2024/03/19 15:19:35;;;;;;;10.57;3.03;;;24.60;40.60;;;;;;6166079;28;81088;-58
2024/03/19 15:22:35;;;;;;;8.10;3.58;;;24.60;41.10;;;;;;6175361;28;81552;-58
2024/03/19 15:25:36;;;;;;;6.75;2.80;;;24.60;41.00;;;;;;6179311;28;86670;-60
2024/03/19 15:28:36;;;;;;;9.43;3.25;;;24.60;40.80;;;;;;6177894;28;81223;-59
2024/03/19 15:31:37;;;;;;;7.90;3.20;;;24.60;40.60;;;;;;6174689;28;81158;-66
2024/03/19 15:34:38;;;;;;;10.48;3.33;;;24.60;40.60;;;;;;6173299;28;80454;-64
2024/03/19 15:37:39;;;;;;;6.32;2.95;;;24.60;41.00;;;;;;6179275;28;80486;-62